sensor_id;sensor_type;location;lat;lon;timestamp;temperature;humidity
25346;DHT22;13300;51.032;3.710;2022-10-31T00:00:11;14.20;99.90
25346;DHT22;13300;51.032;3.710;2022-10-31T00:02:37;14.20;99.90
25346;DHT22;13300;51.032;3.710;2022-10-31T00:05:06;14.10;99.90
25346;DHT22;13300;51.032;3.710;2022-10-31T00:07:31;14.10;99.90
25346;DHT22;13300;51.032;3.710;2022-10-31T00:10:00;14.20;99.90
25346;DHT22;13300;51.032;3.710;2022-10-31T00:12:31;14.10;99.90
25346;DHT22;13300;51.032;3.710;2022-10-31T00:14:57;14.10;99.90
25346;DHT22;13300;51.032;3.710;2022-10-31T00:17:25;14.10;99.90
25346;DHT22;13300;51.032;3.710;2022-10-31T00:19:50;14.10;99.90
25346;DHT22;13300;51.032;3.710;2022-10-31T00:22:16;14.00;99.90
25346;DHT22;13300;51.032;3.710;2022-10-31T00:24:42;13.90;99.90
25346;DHT22;13300;51.032;3.710;2022-10-31T00:27:07;13.90;99.90
25346;DHT22;13300;51.032;3.710;2022-10-31T00:29:33;13.90;99.90
25346;DHT22;13300;51.032;3.710;2022-10-31T00:31:58;13.90;99.90
25346;DHT22;13300;51.032;3.710;2022-10-31T00:34:24;13.90;99.90
25346;DHT22;13300;51.032;3.710;2022-10-31T00:36:52;13.90;99.90
25346;DHT22;13300;51.032;3.710;2022-10-31T00:39:18;13.80;99.90
25346;DHT22;13300;51.032;3.710;2022-10-31T00:41:43;13.80;99.90
25346;DHT22;13300;51.032;3.710;2022-10-31T00:44:09;13.70;99.90
25346;DHT22;13300;51.032;3.710;2022-10-31T00:46:35;13.70;99.90
25346;DHT22;13300;51.032;3.710;2022-10-31T00:49:01;13.60;99.90
25346;DHT22;13300;51.032;3.710;2022-10-31T00:51:26;13.60;99.90
25346;DHT22;13300;51.032;3.710;2022-10-31T00:53:52;13.60;99.90
25346;DHT22;13300;51.032;3.710;2022-10-31T00:56:17;13.60;99.90
25346;DHT22;13300;51.032;3.710;2022-10-31T00:58:43;13.60;99.90
25346;DHT22;13300;51.032;3.710;2022-10-31T01:01:09;13.60;99.90
25346;DHT22;13300;51.032;3.710;2022-10-31T01:03:34;13.50;99.90
25346;DHT22;13300;51.032;3.710;2022-10-31T01:06:03;13.50;99.90
25346;DHT22;13300;51.032;3.710;2022-10-31T01:08:29;13.50;99.90
25346;DHT22;13300;51.032;3.710;2022-10-31T01:11:05;13.40;99.90
25346;DHT22;13300;51.032;3.710;2022-10-31T01:13:31;13.50;99.90
25346;DHT22;13300;51.032;3.710;2022-10-31T01:15:59;13.40;99.90
25346;DHT22;13300;51.032;3.710;2022-10-31T01:18:25;13.50;99.90
25346;DHT22;13300;51.032;3.710;2022-10-31T01:21:01;13.40;99.90
25346;DHT22;13300;51.032;3.710;2022-10-31T01:23:27;13.50;99.90
25346;DHT22;13300;51.032;3.710;2022-10-31T01:26:04;13.40;99.90
25346;DHT22;13300;51.032;3.710;2022-10-31T01:28:29;13.40;99.90
25346;DHT22;13300;51.032;3.710;2022-10-31T01:31:03;13.30;99.90
25346;DHT22;13300;51.032;3.710;2022-10-31T01:33:29;13.40;99.90
25346;DHT22;13300;51.032;3.710;2022-10-31T01:35:55;13.40;99.90
25346;DHT22;13300;51.032;3.710;2022-10-31T01:38:20;13.40;99.90
25346;DHT22;13300;51.032;3.710;2022-10-31T02:04:15;13.00;99.90
25346;DHT22;13300;51.032;3.710;2022-10-31T02:06:48;12.90;99.90
25346;DHT22;13300;51.032;3.710;2022-10-31T02:09:15;12.90;99.90
25346;DHT22;13300;51.032;3.710;2022-10-31T02:11:42;12.90;99.90
25346;DHT22;13300;51.032;3.710;2022-10-31T02:14:08;12.90;99.90
25346;DHT22;13300;51.032;3.710;2022-10-31T02:16:47;12.90;99.90
25346;DHT22;13300;51.032;3.710;2022-10-31T02:19:18;13.00;99.90
25346;DHT22;13300;51.032;3.710;2022-10-31T02:21:53;12.90;99.90
25346;DHT22;13300;51.032;3.710;2022-10-31T02:32:20;12.80;99.90
25346;DHT22;13300;51.032;3.710;2022-10-31T02:34:55;12.80;99.90
25346;DHT22;13300;51.032;3.710;2022-10-31T02:39:56;12.90;99.90
25346;DHT22;13300;51.032;3.710;2022-10-31T02:45:10;12.70;99.90
25346;DHT22;13300;51.032;3.710;2022-10-31T02:47:56;12.70;99.90
25346;DHT22;13300;51.032;3.710;2022-10-31T02:50:28;12.70;99.90
25346;DHT22;13300;51.032;3.710;2022-10-31T02:52:58;12.70;99.90
25346;DHT22;13300;51.032;3.710;2022-10-31T02:57:51;12.70;99.90
25346;DHT22;13300;51.032;3.710;2022-10-31T03:00:17;12.60;99.90
25346;DHT22;13300;51.032;3.710;2022-10-31T07:22:40;13.60;99.90
25346;DHT22;13300;51.032;3.710;2022-10-31T07:25:06;13.60;99.90
25346;DHT22;13300;51.032;3.710;2022-10-31T07:27:35;13.70;99.90
25346;DHT22;13300;51.032;3.710;2022-10-31T07:30:00;13.70;99.90
25346;DHT22;13300;51.032;3.710;2022-10-31T07:32:26;13.80;99.90
25346;DHT22;13300;51.032;3.710;2022-10-31T07:34:51;13.90;99.90
25346;DHT22;13300;51.032;3.710;2022-10-31T07:37:17;14.00;99.90
25346;DHT22;13300;51.032;3.710;2022-10-31T07:39:43;14.10;99.90
25346;DHT22;13300;51.032;3.710;2022-10-31T07:42:08;14.10;99.90
25346;DHT22;13300;51.032;3.710;2022-10-31T07:44:34;14.20;99.90
25346;DHT22;13300;51.032;3.710;2022-10-31T07:46:59;14.20;99.90
25346;DHT22;13300;51.032;3.710;2022-10-31T07:49:25;14.30;99.90
25346;DHT22;13300;51.032;3.710;2022-10-31T07:51:50;14.30;99.90
25346;DHT22;13300;51.032;3.710;2022-10-31T07:54:16;14.20;99.90
25346;DHT22;13300;51.032;3.710;2022-10-31T07:56:42;14.10;99.90
25346;DHT22;13300;51.032;3.710;2022-10-31T07:59:07;14.20;99.90
25346;DHT22;13300;51.032;3.710;2022-10-31T08:01:33;14.30;99.90
25346;DHT22;13300;51.032;3.710;2022-10-31T08:03:58;14.20;99.90
25346;DHT22;13300;51.032;3.710;2022-10-31T08:06:24;14.30;99.90
25346;DHT22;13300;51.032;3.710;2022-10-31T08:08:49;14.20;99.90
25346;DHT22;13300;51.032;3.710;2022-10-31T08:11:15;14.20;99.90
25346;DHT22;13300;51.032;3.710;2022-10-31T08:13:41;14.10;99.90
25346;DHT22;13300;51.032;3.710;2022-10-31T08:16:08;14.20;99.90
25346;DHT22;13300;51.032;3.710;2022-10-31T08:18:36;14.40;99.90
25346;DHT22;13300;51.032;3.710;2022-10-31T08:21:03;14.40;99.90
25346;DHT22;13300;51.032;3.710;2022-10-31T08:23:28;14.60;99.90
25346;DHT22;13300;51.032;3.710;2022-10-31T08:25:54;14.70;99.90
25346;DHT22;13300;51.032;3.710;2022-10-31T08:28:19;14.60;99.90
25346;DHT22;13300;51.032;3.710;2022-10-31T08:30:45;14.70;99.90
25346;DHT22;13300;51.032;3.710;2022-10-31T08:35:37;14.80;99.90
25346;DHT22;13300;51.032;3.710;2022-10-31T08:38:02;15.00;99.90
25346;DHT22;13300;51.032;3.710;2022-10-31T08:40:29;15.00;99.90
25346;DHT22;13300;51.032;3.710;2022-10-31T08:42:59;15.20;99.90
25346;DHT22;13300;51.032;3.710;2022-10-31T08:45:24;15.30;99.90
25346;DHT22;13300;51.032;3.710;2022-10-31T08:47:50;15.40;99.90
25346;DHT22;13300;51.032;3.710;2022-10-31T08:50:16;15.40;99.90
25346;DHT22;13300;51.032;3.710;2022-10-31T08:53:03;15.40;99.90
25346;DHT22;13300;51.032;3.710;2022-10-31T08:58:34;15.60;99.90
25346;DHT22;13300;51.032;3.710;2022-10-31T09:01:01;15.80;99.90
25346;DHT22;13300;51.032;3.710;2022-10-31T09:03:36;15.90;99.90
25346;DHT22;13300;51.032;3.710;2022-10-31T09:06:04;15.90;99.90
25346;DHT22;13300;51.032;3.710;2022-10-31T09:11:38;16.00;99.90
25346;DHT22;13300;51.032;3.710;2022-10-31T09:14:38;15.90;99.90
25346;DHT22;13300;51.032;3.710;2022-10-31T09:17:11;16.00;99.90
25346;DHT22;13300;51.032;3.710;2022-10-31T09:19:37;16.00;99.90
25346;DHT22;13300;51.032;3.710;2022-10-31T09:22:15;15.90;99.90
25346;DHT22;13300;51.032;3.710;2022-10-31T09:27:35;15.80;99.90
25346;DHT22;13300;51.032;3.710;2022-10-31T09:30:05;15.70;99.90
25346;DHT22;13300;51.032;3.710;2022-10-31T09:32:31;15.60;99.90
25346;DHT22;13300;51.032;3.710;2022-10-31T09:35:00;15.60;99.90
25346;DHT22;13300;51.032;3.710;2022-10-31T09:37:25;15.50;99.90
25346;DHT22;13300;51.032;3.710;2022-10-31T09:39:51;15.40;99.90
25346;DHT22;13300;51.032;3.710;2022-10-31T09:45:18;15.60;99.90
25346;DHT22;13300;51.032;3.710;2022-10-31T09:47:56;15.70;99.90
25346;DHT22;13300;51.032;3.710;2022-10-31T09:50:25;15.80;99.90
25346;DHT22;13300;51.032;3.710;2022-10-31T09:53:15;16.10;99.90
25346;DHT22;13300;51.032;3.710;2022-10-31T09:55:53;16.30;99.90
25346;DHT22;13300;51.032;3.710;2022-10-31T10:02:13;16.20;99.90
25346;DHT22;13300;51.032;3.710;2022-10-31T10:04:36;16.10;99.90
25346;DHT22;13300;51.032;3.710;2022-10-31T10:10:17;16.40;99.90
25346;DHT22;13300;51.032;3.710;2022-10-31T10:18:21;17.00;99.90
25346;DHT22;13300;51.032;3.710;2022-10-31T10:20:56;17.20;99.90
25346;DHT22;13300;51.032;3.710;2022-10-31T10:29:47;17.10;99.90
25346;DHT22;13300;51.032;3.710;2022-10-31T10:32:39;17.40;99.90
25346;DHT22;13300;51.032;3.710;2022-10-31T10:35:35;17.60;99.90
25346;DHT22;13300;51.032;3.710;2022-10-31T10:40:36;18.40;99.90
25346;DHT22;13300;51.032;3.710;2022-10-31T10:46:00;19.40;99.90
25346;DHT22;13300;51.032;3.710;2022-10-31T10:51:21;19.50;99.90
25346;DHT22;13300;51.032;3.710;2022-10-31T10:53:57;19.60;99.90
25346;DHT22;13300;51.032;3.710;2022-10-31T10:59:11;19.90;99.90
25346;DHT22;13300;51.032;3.710;2022-10-31T11:01:38;20.10;99.90
25346;DHT22;13300;51.032;3.710;2022-10-31T11:04:07;20.10;99.90
25346;DHT22;13300;51.032;3.710;2022-10-31T11:06:39;20.10;99.90
25346;DHT22;13300;51.032;3.710;2022-10-31T11:09:08;19.90;99.90
25346;DHT22;13300;51.032;3.710;2022-10-31T11:11:34;19.70;99.90
25346;DHT22;13300;51.032;3.710;2022-10-31T11:14:12;19.60;99.90
25346;DHT22;13300;51.032;3.710;2022-10-31T11:16:38;19.40;99.90
25346;DHT22;13300;51.032;3.710;2022-10-31T11:19:08;19.20;99.90
25346;DHT22;13300;51.032;3.710;2022-10-31T11:21:38;19.00;99.90
25346;DHT22;13300;51.032;3.710;2022-10-31T11:26:41;18.90;99.90
25346;DHT22;13300;51.032;3.710;2022-10-31T11:29:15;19.00;99.90
25346;DHT22;13300;51.032;3.710;2022-10-31T11:31:41;19.10;99.90
25346;DHT22;13300;51.032;3.710;2022-10-31T11:34:12;19.20;99.90
25346;DHT22;13300;51.032;3.710;2022-10-31T11:36:42;19.20;99.90
25346;DHT22;13300;51.032;3.710;2022-10-31T11:39:13;19.20;99.90
25346;DHT22;13300;51.032;3.710;2022-10-31T11:41:40;18.90;99.90
25346;DHT22;13300;51.032;3.710;2022-10-31T11:44:17;18.90;99.90
25346;DHT22;13300;51.032;3.710;2022-10-31T11:46:44;18.70;99.90
25346;DHT22;13300;51.032;3.710;2022-10-31T11:49:18;18.70;99.90
25346;DHT22;13300;51.032;3.710;2022-10-31T11:51:47;18.70;99.90
25346;DHT22;13300;51.032;3.710;2022-10-31T11:54:24;18.50;99.90
25346;DHT22;13300;51.032;3.710;2022-10-31T11:56:51;18.60;99.90
25346;DHT22;13300;51.032;3.710;2022-10-31T12:01:49;18.50;99.90
25346;DHT22;13300;51.032;3.710;2022-10-31T12:04:15;18.50;99.90
25346;DHT22;13300;51.032;3.710;2022-10-31T12:06:42;18.40;99.90
25346;DHT22;13300;51.032;3.710;2022-10-31T12:09:19;18.50;99.90
25346;DHT22;13300;51.032;3.710;2022-10-31T12:11:54;18.50;99.90
25346;DHT22;13300;51.032;3.710;2022-10-31T12:19:59;19.00;99.90
25346;DHT22;13300;51.032;3.710;2022-10-31T12:22:38;19.10;99.90
25346;DHT22;13300;51.032;3.710;2022-10-31T12:30:13;18.60;99.90
25346;DHT22;13300;51.032;3.710;2022-10-31T12:32:54;18.60;99.90
25346;DHT22;13300;51.032;3.710;2022-10-31T12:40:47;18.80;99.90
25346;DHT22;13300;51.032;3.710;2022-10-31T12:43:23;18.70;99.90
25346;DHT22;13300;51.032;3.710;2022-10-31T12:46:09;18.70;99.90
25346;DHT22;13300;51.032;3.710;2022-10-31T12:49:14;18.70;99.90
25346;DHT22;13300;51.032;3.710;2022-10-31T12:52:00;18.60;99.90
25346;DHT22;13300;51.032;3.710;2022-10-31T12:54:51;18.60;99.90
25346;DHT22;13300;51.032;3.710;2022-10-31T12:57:32;18.60;99.90
25346;DHT22;13300;51.032;3.710;2022-10-31T13:03:28;18.50;99.90
25346;DHT22;13300;51.032;3.710;2022-10-31T13:06:47;18.60;99.90
25346;DHT22;13300;51.032;3.710;2022-10-31T13:09:09;18.80;99.90
25346;DHT22;13300;51.032;3.710;2022-10-31T13:11:45;18.90;99.90
25346;DHT22;13300;51.032;3.710;2022-10-31T13:16:56;19.20;99.90
25346;DHT22;13300;51.032;3.710;2022-10-31T13:19:31;19.80;99.90
25346;DHT22;13300;51.032;3.710;2022-10-31T13:27:01;22.40;99.90
25346;DHT22;13300;51.032;3.710;2022-10-31T13:29:29;23.10;99.90
25346;DHT22;13300;51.032;3.710;2022-10-31T13:31:56;23.50;99.90
25346;DHT22;13300;51.032;3.710;2022-10-31T13:45:15;23.40;99.90
25346;DHT22;13300;51.032;3.710;2022-10-31T13:47:54;23.20;99.90
25346;DHT22;13300;51.032;3.710;2022-10-31T13:50:22;23.40;99.90
25346;DHT22;13300;51.032;3.710;2022-10-31T13:52:52;23.50;99.90
25346;DHT22;13300;51.032;3.710;2022-10-31T13:58:28;23.30;99.90
25346;DHT22;13300;51.032;3.710;2022-10-31T14:03:42;23.50;99.90
25346;DHT22;13300;51.032;3.710;2022-10-31T14:06:12;23.00;99.90
25346;DHT22;13300;51.032;3.710;2022-10-31T14:11:30;21.60;99.90
25346;DHT22;13300;51.032;3.710;2022-10-31T14:13:56;20.80;99.90
25346;DHT22;13300;51.032;3.710;2022-10-31T14:16:26;20.60;99.90
25346;DHT22;13300;51.032;3.710;2022-10-31T14:19:01;20.10;99.90
25346;DHT22;13300;51.032;3.710;2022-10-31T14:24:12;19.60;99.90
25346;DHT22;13300;51.032;3.710;2022-10-31T14:29:25;19.60;99.90
25346;DHT22;13300;51.032;3.710;2022-10-31T14:31:52;19.60;99.90
25346;DHT22;13300;51.032;3.710;2022-10-31T14:39:24;19.60;99.90
25346;DHT22;13300;51.032;3.710;2022-10-31T14:42:11;19.40;99.90
25346;DHT22;13300;51.032;3.710;2022-10-31T14:52:56;19.30;99.90
25346;DHT22;13300;51.032;3.710;2022-10-31T14:55:22;19.30;99.90
25346;DHT22;13300;51.032;3.710;2022-10-31T14:57:50;19.10;99.90
25346;DHT22;13300;51.032;3.710;2022-10-31T15:00:17;19.10;99.90
25346;DHT22;13300;51.032;3.710;2022-10-31T15:02:59;19.20;99.90
25346;DHT22;13300;51.032;3.710;2022-10-31T15:05:27;19.00;99.90
25346;DHT22;13300;51.032;3.710;2022-10-31T15:07:53;19.10;99.90
25346;DHT22;13300;51.032;3.710;2022-10-31T15:10:29;19.00;99.90
25346;DHT22;13300;51.032;3.710;2022-10-31T15:13:10;18.80;99.90
25346;DHT22;13300;51.032;3.710;2022-10-31T15:15:38;18.70;99.90
25346;DHT22;13300;51.032;3.710;2022-10-31T15:18:05;18.70;99.90
25346;DHT22;13300;51.032;3.710;2022-10-31T15:20:33;18.70;99.90
25346;DHT22;13300;51.032;3.710;2022-10-31T15:23:10;18.70;99.90
25346;DHT22;13300;51.032;3.710;2022-10-31T15:25:40;18.70;99.90
25346;DHT22;13300;51.032;3.710;2022-10-31T15:28:27;18.60;99.90
25346;DHT22;13300;51.032;3.710;2022-10-31T15:30:52;18.60;99.90
25346;DHT22;13300;51.032;3.710;2022-10-31T15:33:25;18.70;99.90
25346;DHT22;13300;51.032;3.710;2022-10-31T15:35:54;18.80;99.90
25346;DHT22;13300;51.032;3.710;2022-10-31T15:38:21;18.70;99.90
25346;DHT22;13300;51.032;3.710;2022-10-31T15:41:03;18.70;99.90
25346;DHT22;13300;51.032;3.710;2022-10-31T15:43:34;18.70;99.90
25346;DHT22;13300;51.032;3.710;2022-10-31T15:46:00;18.60;99.90
25346;DHT22;13300;51.032;3.710;2022-10-31T15:48:27;18.50;99.90
25346;DHT22;13300;51.032;3.710;2022-10-31T15:50:55;18.40;99.90
25346;DHT22;13300;51.032;3.710;2022-10-31T15:53:45;18.40;99.90
25346;DHT22;13300;51.032;3.710;2022-10-31T15:56:14;18.40;99.90
25346;DHT22;13300;51.032;3.710;2022-10-31T15:58:46;18.40;99.90
25346;DHT22;13300;51.032;3.710;2022-10-31T16:01:22;18.30;99.90
25346;DHT22;13300;51.032;3.710;2022-10-31T16:06:29;18.10;99.90
25346;DHT22;13300;51.032;3.710;2022-10-31T16:08:55;17.80;99.90
25346;DHT22;13300;51.032;3.710;2022-10-31T16:11:37;17.90;99.90
25346;DHT22;13300;51.032;3.710;2022-10-31T16:16:45;17.60;99.90
25346;DHT22;13300;51.032;3.710;2022-10-31T16:19:19;17.60;99.90
25346;DHT22;13300;51.032;3.710;2022-10-31T16:21:45;17.70;99.90
25346;DHT22;13300;51.032;3.710;2022-10-31T16:26:38;17.50;99.90
25346;DHT22;13300;51.032;3.710;2022-10-31T16:29:04;17.50;99.90
25346;DHT22;13300;51.032;3.710;2022-10-31T16:31:37;17.50;99.90
25346;DHT22;13300;51.032;3.710;2022-10-31T16:34:04;17.50;99.90
25346;DHT22;13300;51.032;3.710;2022-10-31T16:36:31;17.40;99.90
25346;DHT22;13300;51.032;3.710;2022-10-31T16:38:57;17.40;99.90
25346;DHT22;13300;51.032;3.710;2022-10-31T16:41:23;17.30;99.90
25346;DHT22;13300;51.032;3.710;2022-10-31T16:43:50;17.20;99.90
25346;DHT22;13300;51.032;3.710;2022-10-31T16:46:17;17.30;99.90
25346;DHT22;13300;51.032;3.710;2022-10-31T16:48:46;17.20;99.90
25346;DHT22;13300;51.032;3.710;2022-10-31T16:51:11;17.20;99.90
25346;DHT22;13300;51.032;3.710;2022-10-31T16:53:37;17.20;99.90
25346;DHT22;13300;51.032;3.710;2022-10-31T16:56:03;17.30;99.90
25346;DHT22;13300;51.032;3.710;2022-10-31T16:58:30;17.20;99.90
25346;DHT22;13300;51.032;3.710;2022-10-31T17:00:57;17.10;99.90
25346;DHT22;13300;51.032;3.710;2022-10-31T17:03:23;16.90;99.90
25346;DHT22;13300;51.032;3.710;2022-10-31T17:05:48;16.90;99.90
25346;DHT22;13300;51.032;3.710;2022-10-31T17:08:14;16.80;99.90
25346;DHT22;13300;51.032;3.710;2022-10-31T17:10:40;16.80;99.90
25346;DHT22;13300;51.032;3.710;2022-10-31T17:13:08;16.80;99.90
25346;DHT22;13300;51.032;3.710;2022-10-31T17:15:45;16.80;99.90
25346;DHT22;13300;51.032;3.710;2022-10-31T17:18:14;16.70;99.90
25346;DHT22;13300;51.032;3.710;2022-10-31T17:20:40;16.60;99.90
25346;DHT22;13300;51.032;3.710;2022-10-31T17:23:08;16.60;99.90
25346;DHT22;13300;51.032;3.710;2022-10-31T17:25:34;16.60;99.90
25346;DHT22;13300;51.032;3.710;2022-10-31T17:28:00;16.60;99.90
25346;DHT22;13300;51.032;3.710;2022-10-31T17:30:26;16.50;99.90
25346;DHT22;13300;51.032;3.710;2022-10-31T17:32:54;16.50;99.90
25346;DHT22;13300;51.032;3.710;2022-10-31T17:35:23;16.50;99.90
25346;DHT22;13300;51.032;3.710;2022-10-31T17:37:49;16.40;99.90
25346;DHT22;13300;51.032;3.710;2022-10-31T17:40:16;16.30;99.90
25346;DHT22;13300;51.032;3.710;2022-10-31T17:42:42;16.30;99.90
25346;DHT22;13300;51.032;3.710;2022-10-31T17:45:12;16.40;99.90
25346;DHT22;13300;51.032;3.710;2022-10-31T17:47:38;16.40;99.90
25346;DHT22;13300;51.032;3.710;2022-10-31T17:50:04;16.40;99.90
25346;DHT22;13300;51.032;3.710;2022-10-31T17:52:32;16.30;99.90
25346;DHT22;13300;51.032;3.710;2022-10-31T17:54:58;16.50;99.90
25346;DHT22;13300;51.032;3.710;2022-10-31T17:57:25;16.60;99.90
25346;DHT22;13300;51.032;3.710;2022-10-31T17:59:50;16.50;99.90
25346;DHT22;13300;51.032;3.710;2022-10-31T18:02:16;16.50;99.90
25346;DHT22;13300;51.032;3.710;2022-10-31T18:04:42;16.50;99.90
25346;DHT22;13300;51.032;3.710;2022-10-31T18:07:07;16.50;99.90
25346;DHT22;13300;51.032;3.710;2022-10-31T18:09:36;16.40;99.90
25346;DHT22;13300;51.032;3.710;2022-10-31T18:12:01;16.30;99.90
25346;DHT22;13300;51.032;3.710;2022-10-31T18:14:34;16.40;99.90
25346;DHT22;13300;51.032;3.710;2022-10-31T18:17:00;16.60;99.90
25346;DHT22;13300;51.032;3.710;2022-10-31T18:19:25;16.50;99.90
25346;DHT22;13300;51.032;3.710;2022-10-31T18:21:51;16.40;99.90
25346;DHT22;13300;51.032;3.710;2022-10-31T18:24:17;16.50;99.90
25346;DHT22;13300;51.032;3.710;2022-10-31T18:26:42;16.40;99.90
25346;DHT22;13300;51.032;3.710;2022-10-31T18:29:10;16.40;99.90
25346;DHT22;13300;51.032;3.710;2022-10-31T18:31:38;16.50;99.90
25346;DHT22;13300;51.032;3.710;2022-10-31T18:34:04;16.60;99.90
25346;DHT22;13300;51.032;3.710;2022-10-31T18:36:31;16.70;99.90
25346;DHT22;13300;51.032;3.710;2022-10-31T18:38:57;16.60;99.90
25346;DHT22;13300;51.032;3.710;2022-10-31T18:41:23;16.70;99.90
25346;DHT22;13300;51.032;3.710;2022-10-31T18:43:51;16.70;99.90
25346;DHT22;13300;51.032;3.710;2022-10-31T18:46:22;16.60;99.90
25346;DHT22;13300;51.032;3.710;2022-10-31T18:49:10;16.70;99.90
25346;DHT22;13300;51.032;3.710;2022-10-31T18:51:49;16.70;99.90
25346;DHT22;13300;51.032;3.710;2022-10-31T18:54:15;16.70;99.90
25346;DHT22;13300;51.032;3.710;2022-10-31T18:59:31;16.70;99.90
25346;DHT22;13300;51.032;3.710;2022-10-31T19:01:59;16.80;99.90
25346;DHT22;13300;51.032;3.710;2022-10-31T19:04:34;16.70;99.90
25346;DHT22;13300;51.032;3.710;2022-10-31T19:07:02;16.70;99.90
25346;DHT22;13300;51.032;3.710;2022-10-31T19:09:34;16.70;99.90
25346;DHT22;13300;51.032;3.710;2022-10-31T19:12:29;16.80;99.90
25346;DHT22;13300;51.032;3.710;2022-10-31T19:15:17;16.60;99.90
25346;DHT22;13300;51.032;3.710;2022-10-31T19:21:00;16.80;99.90
25346;DHT22;13300;51.032;3.710;2022-10-31T19:23:57;16.70;99.90
25346;DHT22;13300;51.032;3.710;2022-10-31T19:29:25;16.80;99.90
25346;DHT22;13300;51.032;3.710;2022-10-31T19:32:13;16.80;99.90
25346;DHT22;13300;51.032;3.710;2022-10-31T19:34:52;16.80;99.90
25346;DHT22;13300;51.032;3.710;2022-10-31T19:37:40;16.90;99.90
25346;DHT22;13300;51.032;3.710;2022-10-31T19:43:14;16.90;99.90
25346;DHT22;13300;51.032;3.710;2022-10-31T19:45:58;17.00;99.90
25346;DHT22;13300;51.032;3.710;2022-10-31T19:51:16;17.00;99.90
25346;DHT22;13300;51.032;3.710;2022-10-31T19:54:01;17.00;99.90
25346;DHT22;13300;51.032;3.710;2022-10-31T19:56:30;17.00;99.90
25346;DHT22;13300;51.032;3.710;2022-10-31T19:58:59;17.00;99.90
25346;DHT22;13300;51.032;3.710;2022-10-31T20:01:38;17.20;99.90
25346;DHT22;13300;51.032;3.710;2022-10-31T20:04:06;17.20;99.90
25346;DHT22;13300;51.032;3.710;2022-10-31T20:06:48;17.10;99.90
25346;DHT22;13300;51.032;3.710;2022-10-31T20:09:19;17.10;99.90
25346;DHT22;13300;51.032;3.710;2022-10-31T20:12:08;17.20;99.90
25346;DHT22;13300;51.032;3.710;2022-10-31T20:14:48;17.30;99.90
25346;DHT22;13300;51.032;3.710;2022-10-31T20:17:23;17.20;99.90
25346;DHT22;13300;51.032;3.710;2022-10-31T20:19:51;17.10;99.90
25346;DHT22;13300;51.032;3.710;2022-10-31T20:22:19;17.00;99.90
25346;DHT22;13300;51.032;3.710;2022-10-31T20:24:50;17.00;99.90
25346;DHT22;13300;51.032;3.710;2022-10-31T20:27:23;16.80;99.90
25346;DHT22;13300;51.032;3.710;2022-10-31T20:30:15;16.70;99.90
25346;DHT22;13300;51.032;3.710;2022-10-31T20:32:40;16.70;99.90
25346;DHT22;13300;51.032;3.710;2022-10-31T20:35:17;16.60;99.90
25346;DHT22;13300;51.032;3.710;2022-10-31T20:37:51;16.60;99.90
25346;DHT22;13300;51.032;3.710;2022-10-31T20:40:17;16.60;99.90
25346;DHT22;13300;51.032;3.710;2022-10-31T20:42:45;16.70;99.90
25346;DHT22;13300;51.032;3.710;2022-10-31T20:45:14;16.60;99.90
25346;DHT22;13300;51.032;3.710;2022-10-31T20:47:39;16.70;99.90
25346;DHT22;13300;51.032;3.710;2022-10-31T20:50:16;16.70;99.90
25346;DHT22;13300;51.032;3.710;2022-10-31T20:52:44;16.80;99.90
25346;DHT22;13300;51.032;3.710;2022-10-31T20:55:12;16.80;99.90
25346;DHT22;13300;51.032;3.710;2022-10-31T20:57:41;16.80;99.90
25346;DHT22;13300;51.032;3.710;2022-10-31T21:00:15;16.70;99.90
25346;DHT22;13300;51.032;3.710;2022-10-31T21:03:01;16.80;99.90
25346;DHT22;13300;51.032;3.710;2022-10-31T21:05:26;16.80;99.90
25346;DHT22;13300;51.032;3.710;2022-10-31T21:07:55;16.90;99.90
25346;DHT22;13300;51.032;3.710;2022-10-31T21:10:31;16.90;99.90
25346;DHT22;13300;51.032;3.710;2022-10-31T21:12:59;17.00;99.90
25346;DHT22;13300;51.032;3.710;2022-10-31T21:15:33;17.00;99.90
25346;DHT22;13300;51.032;3.710;2022-10-31T21:18:10;17.00;99.90
25346;DHT22;13300;51.032;3.710;2022-10-31T21:20:53;17.10;99.90
25346;DHT22;13300;51.032;3.710;2022-10-31T21:26:19;17.20;99.90
25346;DHT22;13300;51.032;3.710;2022-10-31T21:28:45;17.20;99.90
25346;DHT22;13300;51.032;3.710;2022-10-31T21:31:12;17.10;99.90
25346;DHT22;13300;51.032;3.710;2022-10-31T21:39:44;16.90;99.90
25346;DHT22;13300;51.032;3.710;2022-10-31T21:45:02;16.90;99.90
25346;DHT22;13300;51.032;3.710;2022-10-31T21:47:30;16.90;99.90
25346;DHT22;13300;51.032;3.710;2022-10-31T21:56:09;17.10;99.90
25346;DHT22;13300;51.032;3.710;2022-10-31T21:58:43;17.30;99.90
25346;DHT22;13300;51.032;3.710;2022-10-31T22:01:20;17.20;99.90
25346;DHT22;13300;51.032;3.710;2022-10-31T22:06:47;17.00;99.90
25346;DHT22;13300;51.032;3.710;2022-10-31T22:09:15;17.00;99.90
25346;DHT22;13300;51.032;3.710;2022-10-31T22:11:49;16.90;99.90
25346;DHT22;13300;51.032;3.710;2022-10-31T22:14:28;16.70;99.90
25346;DHT22;13300;51.032;3.710;2022-10-31T22:17:17;16.60;99.90
25346;DHT22;13300;51.032;3.710;2022-10-31T22:19:45;16.50;99.90
25346;DHT22;13300;51.032;3.710;2022-10-31T22:22:21;16.50;99.90
25346;DHT22;13300;51.032;3.710;2022-10-31T22:24:58;16.40;99.90
25346;DHT22;13300;51.032;3.710;2022-10-31T22:27:35;16.50;99.90
25346;DHT22;13300;51.032;3.710;2022-10-31T22:30:05;16.50;99.90
25346;DHT22;13300;51.032;3.710;2022-10-31T22:32:51;16.50;99.90
25346;DHT22;13300;51.032;3.710;2022-10-31T22:35:25;16.40;99.90
25346;DHT22;13300;51.032;3.710;2022-10-31T22:38:05;16.40;99.90
25346;DHT22;13300;51.032;3.710;2022-10-31T22:40:33;16.50;99.90
25346;DHT22;13300;51.032;3.710;2022-10-31T22:42:59;16.50;99.90
25346;DHT22;13300;51.032;3.710;2022-10-31T22:45:51;16.50;99.90
25346;DHT22;13300;51.032;3.710;2022-10-31T22:48:15;16.50;99.90
25346;DHT22;13300;51.032;3.710;2022-10-31T22:50:45;16.50;99.90
25346;DHT22;13300;51.032;3.710;2022-10-31T22:53:13;16.60;99.90
25346;DHT22;13300;51.032;3.710;2022-10-31T22:55:40;16.60;99.90
25346;DHT22;13300;51.032;3.710;2022-10-31T22:58:11;16.60;99.90
25346;DHT22;13300;51.032;3.710;2022-10-31T23:00:39;16.60;99.90
25346;DHT22;13300;51.032;3.710;2022-10-31T23:03:12;16.60;99.90
25346;DHT22;13300;51.032;3.710;2022-10-31T23:05:58;16.70;99.90
25346;DHT22;13300;51.032;3.710;2022-10-31T23:08:36;16.70;99.90
25346;DHT22;13300;51.032;3.710;2022-10-31T23:11:11;16.70;99.90
25346;DHT22;13300;51.032;3.710;2022-10-31T23:13:40;16.70;99.90
25346;DHT22;13300;51.032;3.710;2022-10-31T23:16:27;16.70;99.90
25346;DHT22;13300;51.032;3.710;2022-10-31T23:19:02;16.70;99.90
25346;DHT22;13300;51.032;3.710;2022-10-31T23:21:52;16.80;99.90
25346;DHT22;13300;51.032;3.710;2022-10-31T23:24:46;16.80;99.90
25346;DHT22;13300;51.032;3.710;2022-10-31T23:27:21;16.90;99.90
25346;DHT22;13300;51.032;3.710;2022-10-31T23:29:53;16.80;99.90